sensor_id;sensor_type;location;lat;lon;timestamp;temperature;humidity
35746;DHT22;21870;42.812;74.628;2022-12-18T00:02:08;-0.30;99.90
35746;DHT22;21870;42.812;74.628;2022-12-18T00:04:41;-0.40;99.90
35746;DHT22;21870;42.812;74.628;2022-12-18T00:07:07;-0.30;99.90
35746;DHT22;21870;42.812;74.628;2022-12-18T00:09:33;-0.40;99.90
35746;DHT22;21870;42.812;74.628;2022-12-18T00:11:59;-0.30;99.90
35746;DHT22;21870;42.812;74.628;2022-12-18T00:14:25;-0.40;99.90
35746;DHT22;21870;42.812;74.628;2022-12-18T00:16:51;-0.30;99.90
35746;DHT22;21870;42.812;74.628;2022-12-18T00:19:17;-0.30;99.90
35746;DHT22;21870;42.812;74.628;2022-12-18T00:21:43;-0.40;99.90
35746;DHT22;21870;42.812;74.628;2022-12-18T00:24:10;-0.40;99.90
35746;DHT22;21870;42.812;74.628;2022-12-18T00:26:39;-0.40;99.90
35746;DHT22;21870;42.812;74.628;2022-12-18T00:29:13;-0.40;99.90
35746;DHT22;21870;42.812;74.628;2022-12-18T00:31:41;-0.40;99.90
35746;DHT22;21870;42.812;74.628;2022-12-18T00:34:10;-0.40;99.90
35746;DHT22;21870;42.812;74.628;2022-12-18T00:36:38;-0.30;99.90
35746;DHT22;21870;42.812;74.628;2022-12-18T00:39:05;-0.30;99.90
35746;DHT22;21870;42.812;74.628;2022-12-18T00:41:31;-0.40;99.90
35746;DHT22;21870;42.812;74.628;2022-12-18T00:44:17;-0.30;99.90
35746;DHT22;21870;42.812;74.628;2022-12-18T00:46:44;-0.30;99.90
35746;DHT22;21870;42.812;74.628;2022-12-18T00:49:10;-0.30;99.90
35746;DHT22;21870;42.812;74.628;2022-12-18T00:51:37;-0.30;99.90
35746;DHT22;21870;42.812;74.628;2022-12-18T00:54:03;-0.30;99.90
35746;DHT22;21870;42.812;74.628;2022-12-18T00:56:30;-0.30;99.90
35746;DHT22;21870;42.812;74.628;2022-12-18T00:58:56;-0.50;99.90
35746;DHT22;21870;42.812;74.628;2022-12-18T01:01:22;-0.50;99.90
35746;DHT22;21870;42.812;74.628;2022-12-18T01:03:48;-0.50;99.90
35746;DHT22;21870;42.812;74.628;2022-12-18T01:06:15;-0.60;99.90
35746;DHT22;21870;42.812;74.628;2022-12-18T01:08:41;-0.50;99.90
35746;DHT22;21870;42.812;74.628;2022-12-18T01:11:16;-0.50;99.90
35746;DHT22;21870;42.812;74.628;2022-12-18T01:13:46;-0.50;99.90
35746;DHT22;21870;42.812;74.628;2022-12-18T01:16:14;-0.50;99.90
35746;DHT22;21870;42.812;74.628;2022-12-18T01:18:41;-0.50;99.90
35746;DHT22;21870;42.812;74.628;2022-12-18T01:21:14;-0.40;99.90
35746;DHT22;21870;42.812;74.628;2022-12-18T01:23:40;-0.30;99.90
35746;DHT22;21870;42.812;74.628;2022-12-18T01:26:11;-0.30;99.90
35746;DHT22;21870;42.812;74.628;2022-12-18T01:28:38;-0.20;99.90
35746;DHT22;21870;42.812;74.628;2022-12-18T01:31:15;-0.30;99.90
35746;DHT22;21870;42.812;74.628;2022-12-18T01:33:42;-0.30;99.90
35746;DHT22;21870;42.812;74.628;2022-12-18T01:36:18;-0.20;99.90
35746;DHT22;21870;42.812;74.628;2022-12-18T01:38:45;-0.20;99.90
35746;DHT22;21870;42.812;74.628;2022-12-18T01:41:11;-0.20;99.90
35746;DHT22;21870;42.812;74.628;2022-12-18T01:43:55;-0.30;99.90
35746;DHT22;21870;42.812;74.628;2022-12-18T01:46:26;-0.20;99.90
35746;DHT22;21870;42.812;74.628;2022-12-18T01:49:01;-0.20;99.90
35746;DHT22;21870;42.812;74.628;2022-12-18T01:51:29;-0.30;99.90
35746;DHT22;21870;42.812;74.628;2022-12-18T01:53:55;-0.30;99.90
35746;DHT22;21870;42.812;74.628;2022-12-18T01:56:22;-0.20;99.90
35746;DHT22;21870;42.812;74.628;2022-12-18T01:59:03;-0.20;99.90
35746;DHT22;21870;42.812;74.628;2022-12-18T02:01:32;-0.20;99.90
35746;DHT22;21870;42.812;74.628;2022-12-18T02:04:31;-0.30;99.90
35746;DHT22;21870;42.812;74.628;2022-12-18T02:07:08;-0.20;99.90
35746;DHT22;21870;42.812;74.628;2022-12-18T02:09:51;-0.20;99.90
35746;DHT22;21870;42.812;74.628;2022-12-18T02:12:31;-0.20;99.90
35746;DHT22;21870;42.812;74.628;2022-12-18T02:15:15;-0.30;99.90
35746;DHT22;21870;42.812;74.628;2022-12-18T02:20:32;-0.50;99.90
35746;DHT22;21870;42.812;74.628;2022-12-18T02:26:06;-0.50;99.90
35746;DHT22;21870;42.812;74.628;2022-12-18T02:28:44;-0.60;99.90
35746;DHT22;21870;42.812;74.628;2022-12-18T02:31:14;-0.60;99.90
35746;DHT22;21870;42.812;74.628;2022-12-18T02:33:43;-0.60;99.90
35746;DHT22;21870;42.812;74.628;2022-12-18T02:36:12;-0.60;99.90
35746;DHT22;21870;42.812;74.628;2022-12-18T02:38:41;-0.70;99.90
35746;DHT22;21870;42.812;74.628;2022-12-18T02:41:08;-0.70;99.90
35746;DHT22;21870;42.812;74.628;2022-12-18T02:43:34;-0.70;99.90
35746;DHT22;21870;42.812;74.628;2022-12-18T02:46:20;-0.70;99.90
35746;DHT22;21870;42.812;74.628;2022-12-18T02:48:47;-0.80;99.90
35746;DHT22;21870;42.812;74.628;2022-12-18T02:54:39;-0.80;99.90
35746;DHT22;21870;42.812;74.628;2022-12-18T02:57:16;-0.80;99.90
35746;DHT22;21870;42.812;74.628;2022-12-18T03:02:42;-0.80;99.90
35746;DHT22;21870;42.812;74.628;2022-12-18T03:05:38;-0.90;99.90
35746;DHT22;21870;42.812;74.628;2022-12-18T03:08:30;-0.70;99.90
35746;DHT22;21870;42.812;74.628;2022-12-18T03:11:06;-0.50;99.90
35746;DHT22;21870;42.812;74.628;2022-12-18T03:13:40;-0.40;99.90
35746;DHT22;21870;42.812;74.628;2022-12-18T03:16:11;-0.40;99.90
35746;DHT22;21870;42.812;74.628;2022-12-18T03:18:38;-0.30;99.90
35746;DHT22;21870;42.812;74.628;2022-12-18T03:21:09;-0.20;99.90
35746;DHT22;21870;42.812;74.628;2022-12-18T03:23:44;0.00;99.90
35746;DHT22;21870;42.812;74.628;2022-12-18T03:26:16;0.10;99.90
35746;DHT22;21870;42.812;74.628;2022-12-18T03:28:47;0.30;99.90
35746;DHT22;21870;42.812;74.628;2022-12-18T03:31:16;0.50;99.90
35746;DHT22;21870;42.812;74.628;2022-12-18T03:33:54;0.60;99.90
35746;DHT22;21870;42.812;74.628;2022-12-18T03:36:21;0.70;99.90
35746;DHT22;21870;42.812;74.628;2022-12-18T03:38:48;0.90;99.90
35746;DHT22;21870;42.812;74.628;2022-12-18T03:47:04;1.40;99.90
35746;DHT22;21870;42.812;74.628;2022-12-18T03:49:37;1.60;99.90
35746;DHT22;21870;42.812;74.628;2022-12-18T03:52:09;1.80;99.90
35746;DHT22;21870;42.812;74.628;2022-12-18T03:54:37;2.10;99.90
35746;DHT22;21870;42.812;74.628;2022-12-18T03:57:16;2.40;99.90
35746;DHT22;21870;42.812;74.628;2022-12-18T03:59:45;2.60;99.90
35746;DHT22;21870;42.812;74.628;2022-12-18T04:02:12;2.70;99.90
35746;DHT22;21870;42.812;74.628;2022-12-18T04:04:42;2.70;99.90
35746;DHT22;21870;42.812;74.628;2022-12-18T04:07:12;2.80;99.90
35746;DHT22;21870;42.812;74.628;2022-12-18T04:09:40;2.80;99.90
35746;DHT22;21870;42.812;74.628;2022-12-18T04:12:08;3.10;99.90
35746;DHT22;21870;42.812;74.628;2022-12-18T04:14:34;3.20;99.90
35746;DHT22;21870;42.812;74.628;2022-12-18T04:17:02;3.30;99.90
35746;DHT22;21870;42.812;74.628;2022-12-18T04:19:28;3.40;99.90
35746;DHT22;21870;42.812;74.628;2022-12-18T04:21:54;3.60;99.90
35746;DHT22;21870;42.812;74.628;2022-12-18T04:24:21;3.60;99.90
35746;DHT22;21870;42.812;74.628;2022-12-18T04:26:47;3.80;99.90
35746;DHT22;21870;42.812;74.628;2022-12-18T04:29:13;4.00;99.90
35746;DHT22;21870;42.812;74.628;2022-12-18T04:31:39;4.20;99.90
35746;DHT22;21870;42.812;74.628;2022-12-18T04:34:05;4.40;99.90
35746;DHT22;21870;42.812;74.628;2022-12-18T04:36:31;4.40;99.90
35746;DHT22;21870;42.812;74.628;2022-12-18T04:38:57;4.40;99.90
35746;DHT22;21870;42.812;74.628;2022-12-18T04:41:23;4.50;99.90
35746;DHT22;21870;42.812;74.628;2022-12-18T04:43:49;4.70;99.90
35746;DHT22;21870;42.812;74.628;2022-12-18T04:46:15;5.00;99.90
35746;DHT22;21870;42.812;74.628;2022-12-18T04:48:41;5.20;99.90
35746;DHT22;21870;42.812;74.628;2022-12-18T04:51:07;5.50;99.90
35746;DHT22;21870;42.812;74.628;2022-12-18T04:53:34;5.60;99.90
35746;DHT22;21870;42.812;74.628;2022-12-18T04:56:10;5.60;99.90
35746;DHT22;21870;42.812;74.628;2022-12-18T04:58:38;6.00;99.90
35746;DHT22;21870;42.812;74.628;2022-12-18T05:01:05;6.20;99.90
35746;DHT22;21870;42.812;74.628;2022-12-18T05:03:33;6.20;99.90
35746;DHT22;21870;42.812;74.628;2022-12-18T05:05:59;6.20;99.90
35746;DHT22;21870;42.812;74.628;2022-12-18T05:08:25;6.40;99.90
35746;DHT22;21870;42.812;74.628;2022-12-18T05:11:09;6.60;99.90
35746;DHT22;21870;42.812;74.628;2022-12-18T05:13:35;6.90;99.90
35746;DHT22;21870;42.812;74.628;2022-12-18T05:16:02;6.90;99.90
35746;DHT22;21870;42.812;74.628;2022-12-18T05:18:28;7.20;99.90
35746;DHT22;21870;42.812;74.628;2022-12-18T05:20:54;7.20;99.90
35746;DHT22;21870;42.812;74.628;2022-12-18T05:23:22;7.40;99.90
35746;DHT22;21870;42.812;74.628;2022-12-18T05:25:55;7.50;99.90
35746;DHT22;21870;42.812;74.628;2022-12-18T05:28:23;7.60;99.90
35746;DHT22;21870;42.812;74.628;2022-12-18T05:30:54;7.80;99.90
35746;DHT22;21870;42.812;74.628;2022-12-18T05:33:22;7.80;99.90
35746;DHT22;21870;42.812;74.628;2022-12-18T05:35:56;8.10;99.90
35746;DHT22;21870;42.812;74.628;2022-12-18T05:38:23;8.20;99.90
35746;DHT22;21870;42.812;74.628;2022-12-18T05:40:51;8.30;99.90
35746;DHT22;21870;42.812;74.628;2022-12-18T05:43:18;8.40;99.90
35746;DHT22;21870;42.812;74.628;2022-12-18T05:45:45;8.60;99.90
35746;DHT22;21870;42.812;74.628;2022-12-18T05:48:11;8.60;99.90
35746;DHT22;21870;42.812;74.628;2022-12-18T05:50:39;8.80;99.90
35746;DHT22;21870;42.812;74.628;2022-12-18T05:53:06;8.90;99.90
35746;DHT22;21870;42.812;74.628;2022-12-18T05:55:36;8.90;99.90
35746;DHT22;21870;42.812;74.628;2022-12-18T05:58:03;9.10;99.90
35746;DHT22;21870;42.812;74.628;2022-12-18T06:00:30;9.20;99.90
35746;DHT22;21870;42.812;74.628;2022-12-18T06:02:58;9.20;99.90
35746;DHT22;21870;42.812;74.628;2022-12-18T06:05:25;9.20;99.90
35746;DHT22;21870;42.812;74.628;2022-12-18T06:07:51;9.20;99.90
35746;DHT22;21870;42.812;74.628;2022-12-18T06:10:17;9.40;99.90
35746;DHT22;21870;42.812;74.628;2022-12-18T06:12:43;9.60;99.90
35746;DHT22;21870;42.812;74.628;2022-12-18T06:15:09;9.60;99.90
35746;DHT22;21870;42.812;74.628;2022-12-18T06:17:36;9.60;99.90
35746;DHT22;21870;42.812;74.628;2022-12-18T06:20:04;9.80;99.90
35746;DHT22;21870;42.812;74.628;2022-12-18T06:22:33;10.10;99.90
35746;DHT22;21870;42.812;74.628;2022-12-18T06:25:00;10.30;99.90
35746;DHT22;21870;42.812;74.628;2022-12-18T06:27:26;10.30;99.90
35746;DHT22;21870;42.812;74.628;2022-12-18T06:29:52;10.20;99.90
35746;DHT22;21870;42.812;74.628;2022-12-18T06:32:21;10.50;99.90
35746;DHT22;21870;42.812;74.628;2022-12-18T06:34:47;10.40;99.90
35746;DHT22;21870;42.812;74.628;2022-12-18T06:37:13;10.60;99.90
35746;DHT22;21870;42.812;74.628;2022-12-18T06:39:40;10.60;99.90
35746;DHT22;21870;42.812;74.628;2022-12-18T06:42:06;10.80;99.90
35746;DHT22;21870;42.812;74.628;2022-12-18T06:44:32;11.00;99.90
35746;DHT22;21870;42.812;74.628;2022-12-18T06:46:58;11.20;99.90
35746;DHT22;21870;42.812;74.628;2022-12-18T06:49:24;11.30;99.90
35746;DHT22;21870;42.812;74.628;2022-12-18T06:51:50;11.20;99.90
35746;DHT22;21870;42.812;74.628;2022-12-18T06:54:16;11.40;99.90
35746;DHT22;21870;42.812;74.628;2022-12-18T06:56:42;11.50;99.90
35746;DHT22;21870;42.812;74.628;2022-12-18T06:59:10;11.60;99.90
35746;DHT22;21870;42.812;74.628;2022-12-18T07:01:36;11.60;99.90
35746;DHT22;21870;42.812;74.628;2022-12-18T07:04:02;11.80;99.90
35746;DHT22;21870;42.812;74.628;2022-12-18T07:06:28;11.80;99.90
35746;DHT22;21870;42.812;74.628;2022-12-18T07:08:54;11.80;99.90
35746;DHT22;21870;42.812;74.628;2022-12-18T07:11:21;11.90;99.90
35746;DHT22;21870;42.812;74.628;2022-12-18T07:13:47;12.00;99.90
35746;DHT22;21870;42.812;74.628;2022-12-18T07:16:18;12.10;99.90
35746;DHT22;21870;42.812;74.628;2022-12-18T07:18:47;12.30;99.90
35746;DHT22;21870;42.812;74.628;2022-12-18T07:21:16;12.30;99.90
35746;DHT22;21870;42.812;74.628;2022-12-18T07:23:42;12.30;99.90
35746;DHT22;21870;42.812;74.628;2022-12-18T07:26:12;12.40;99.90
35746;DHT22;21870;42.812;74.628;2022-12-18T07:28:39;12.60;99.90
35746;DHT22;21870;42.812;74.628;2022-12-18T07:31:08;12.60;99.90
35746;DHT22;21870;42.812;74.628;2022-12-18T07:33:35;12.70;99.90
35746;DHT22;21870;42.812;74.628;2022-12-18T07:36:02;12.90;99.90
35746;DHT22;21870;42.812;74.628;2022-12-18T07:38:29;12.80;99.90
35746;DHT22;21870;42.812;74.628;2022-12-18T07:41:00;12.90;99.90
35746;DHT22;21870;42.812;74.628;2022-12-18T07:43:27;12.90;99.90
35746;DHT22;21870;42.812;74.628;2022-12-18T07:45:53;13.00;99.90
35746;DHT22;21870;42.812;74.628;2022-12-18T07:48:19;13.20;99.90
35746;DHT22;21870;42.812;74.628;2022-12-18T07:50:45;13.20;99.90
35746;DHT22;21870;42.812;74.628;2022-12-18T07:53:11;13.30;99.90
35746;DHT22;21870;42.812;74.628;2022-12-18T07:55:37;13.20;99.90
35746;DHT22;21870;42.812;74.628;2022-12-18T07:58:04;13.20;99.90
35746;DHT22;21870;42.812;74.628;2022-12-18T08:00:31;13.30;99.90
35746;DHT22;21870;42.812;74.628;2022-12-18T08:02:57;13.30;99.90
35746;DHT22;21870;42.812;74.628;2022-12-18T08:05:23;13.10;99.90
35746;DHT22;21870;42.812;74.628;2022-12-18T08:07:49;13.10;99.90
35746;DHT22;21870;42.812;74.628;2022-12-18T08:10:15;13.30;99.90
35746;DHT22;21870;42.812;74.628;2022-12-18T08:12:41;13.30;99.90
35746;DHT22;21870;42.812;74.628;2022-12-18T08:15:09;13.40;99.90
35746;DHT22;21870;42.812;74.628;2022-12-18T08:17:35;13.30;99.90
35746;DHT22;21870;42.812;74.628;2022-12-18T08:20:01;13.40;99.90
35746;DHT22;21870;42.812;74.628;2022-12-18T08:22:27;13.40;99.90
35746;DHT22;21870;42.812;74.628;2022-12-18T08:24:53;13.40;99.90
35746;DHT22;21870;42.812;74.628;2022-12-18T08:27:19;13.50;99.90
35746;DHT22;21870;42.812;74.628;2022-12-18T08:29:45;13.40;99.90
35746;DHT22;21870;42.812;74.628;2022-12-18T08:32:11;13.50;99.90
35746;DHT22;21870;42.812;74.628;2022-12-18T08:34:37;13.50;99.90
35746;DHT22;21870;42.812;74.628;2022-12-18T08:37:03;13.40;99.90
35746;DHT22;21870;42.812;74.628;2022-12-18T08:39:29;13.30;99.90
35746;DHT22;21870;42.812;74.628;2022-12-18T08:41:55;13.30;99.90
35746;DHT22;21870;42.812;74.628;2022-12-18T08:44:40;13.10;99.90
35746;DHT22;21870;42.812;74.628;2022-12-18T08:47:07;12.90;99.90
35746;DHT22;21870;42.812;74.628;2022-12-18T08:49:34;12.80;99.90
35746;DHT22;21870;42.812;74.628;2022-12-18T08:52:00;12.80;99.90
35746;DHT22;21870;42.812;74.628;2022-12-18T08:54:28;12.80;99.90
35746;DHT22;21870;42.812;74.628;2022-12-18T08:56:54;12.60;99.90
35746;DHT22;21870;42.812;74.628;2022-12-18T08:59:21;12.70;99.90
35746;DHT22;21870;42.812;74.628;2022-12-18T09:01:47;12.50;99.90
35746;DHT22;21870;42.812;74.628;2022-12-18T09:04:14;12.30;99.90
35746;DHT22;21870;42.812;74.628;2022-12-18T09:06:40;12.20;99.90
35746;DHT22;21870;42.812;74.628;2022-12-18T09:09:07;12.00;99.90
35746;DHT22;21870;42.812;74.628;2022-12-18T09:11:33;11.80;99.90
35746;DHT22;21870;42.812;74.628;2022-12-18T09:14:01;11.70;99.90
35746;DHT22;21870;42.812;74.628;2022-12-18T09:16:28;11.60;99.90
35746;DHT22;21870;42.812;74.628;2022-12-18T09:18:55;11.40;99.90
35746;DHT22;21870;42.812;74.628;2022-12-18T09:21:35;11.10;99.90
35746;DHT22;21870;42.812;74.628;2022-12-18T09:24:01;11.10;99.90
35746;DHT22;21870;42.812;74.628;2022-12-18T09:26:27;10.90;99.90
35746;DHT22;21870;42.812;74.628;2022-12-18T09:28:54;11.00;99.90
35746;DHT22;21870;42.812;74.628;2022-12-18T09:31:22;10.90;99.90
35746;DHT22;21870;42.812;74.628;2022-12-18T09:33:49;10.80;99.90
35746;DHT22;21870;42.812;74.628;2022-12-18T09:36:16;10.70;99.90
35746;DHT22;21870;42.812;74.628;2022-12-18T09:38:43;10.50;99.90
35746;DHT22;21870;42.812;74.628;2022-12-18T09:43:58;10.40;99.90
35746;DHT22;21870;42.812;74.628;2022-12-18T09:46:40;10.30;99.90
35746;DHT22;21870;42.812;74.628;2022-12-18T09:49:12;10.10;99.90
35746;DHT22;21870;42.812;74.628;2022-12-18T09:51:55;10.00;99.90
35746;DHT22;21870;42.812;74.628;2022-12-18T09:54:29;9.90;99.90
35746;DHT22;21870;42.812;74.628;2022-12-18T09:56:56;9.80;99.90
35746;DHT22;21870;42.812;74.628;2022-12-18T09:59:37;9.80;99.90
35746;DHT22;21870;42.812;74.628;2022-12-18T10:02:25;9.60;99.90
35746;DHT22;21870;42.812;74.628;2022-12-18T10:05:06;9.50;99.90
35746;DHT22;21870;42.812;74.628;2022-12-18T10:10:47;9.30;99.90
35746;DHT22;21870;42.812;74.628;2022-12-18T10:21:44;8.90;99.90
35746;DHT22;21870;42.812;74.628;2022-12-18T10:27:15;8.70;99.90
35746;DHT22;21870;42.812;74.628;2022-12-18T10:29:43;8.60;99.90
35746;DHT22;21870;42.812;74.628;2022-12-18T10:32:21;8.50;99.90
35746;DHT22;21870;42.812;74.628;2022-12-18T10:34:49;8.30;99.90
35746;DHT22;21870;42.812;74.628;2022-12-18T10:37:20;8.30;99.90
35746;DHT22;21870;42.812;74.628;2022-12-18T10:40:14;8.20;99.90
35746;DHT22;21870;42.812;74.628;2022-12-18T10:42:41;8.10;99.90
35746;DHT22;21870;42.812;74.628;2022-12-18T10:45:15;8.00;99.90
35746;DHT22;21870;42.812;74.628;2022-12-18T10:47:49;7.80;99.90
35746;DHT22;21870;42.812;74.628;2022-12-18T10:50:23;7.80;99.90
35746;DHT22;21870;42.812;74.628;2022-12-18T10:52:58;7.60;99.90
35746;DHT22;21870;42.812;74.628;2022-12-18T10:55:30;7.50;99.90
35746;DHT22;21870;42.812;74.628;2022-12-18T10:58:29;7.30;99.90
35746;DHT22;21870;42.812;74.628;2022-12-18T11:01:16;7.10;99.90
35746;DHT22;21870;42.812;74.628;2022-12-18T11:06:25;6.60;99.90
35746;DHT22;21870;42.812;74.628;2022-12-18T11:09:00;6.40;99.90
35746;DHT22;21870;42.812;74.628;2022-12-18T11:11:26;6.30;99.90
35746;DHT22;21870;42.812;74.628;2022-12-18T11:14:02;6.10;99.90
35746;DHT22;21870;42.812;74.628;2022-12-18T11:16:34;6.00;99.90
35746;DHT22;21870;42.812;74.628;2022-12-18T11:19:35;5.80;99.90
35746;DHT22;21870;42.812;74.628;2022-12-18T11:22:17;5.60;99.90
35746;DHT22;21870;42.812;74.628;2022-12-18T11:24:55;5.60;99.90
35746;DHT22;21870;42.812;74.628;2022-12-18T11:27:22;5.40;99.90
35746;DHT22;21870;42.812;74.628;2022-12-18T11:29:50;5.20;99.90
35746;DHT22;21870;42.812;74.628;2022-12-18T11:37:57;4.80;99.90
35746;DHT22;21870;42.812;74.628;2022-12-18T11:40:33;4.70;99.90
35746;DHT22;21870;42.812;74.628;2022-12-18T11:43:14;4.60;99.90
35746;DHT22;21870;42.812;74.628;2022-12-18T11:45:49;4.60;99.90
35746;DHT22;21870;42.812;74.628;2022-12-18T11:48:18;4.60;99.90
35746;DHT22;21870;42.812;74.628;2022-12-18T11:50:53;4.60;99.90
35746;DHT22;21870;42.812;74.628;2022-12-18T11:53:21;4.40;99.90
35746;DHT22;21870;42.812;74.628;2022-12-18T11:58:38;4.20;99.90
35746;DHT22;21870;42.812;74.628;2022-12-18T12:09:42;3.80;99.90
35746;DHT22;21870;42.812;74.628;2022-12-18T12:12:35;3.70;99.90
35746;DHT22;21870;42.812;74.628;2022-12-18T12:17:52;3.60;99.90
35746;DHT22;21870;42.812;74.628;2022-12-18T12:20:21;3.60;99.90
35746;DHT22;21870;42.812;74.628;2022-12-18T12:22:59;3.50;99.90
35746;DHT22;21870;42.812;74.628;2022-12-18T12:25:36;3.50;99.90
35746;DHT22;21870;42.812;74.628;2022-12-18T12:31:01;3.20;99.90
35746;DHT22;21870;42.812;74.628;2022-12-18T12:36:22;3.20;99.90
35746;DHT22;21870;42.812;74.628;2022-12-18T12:38:59;3.20;99.90
35746;DHT22;21870;42.812;74.628;2022-12-18T12:41:31;3.10;99.90
35746;DHT22;21870;42.812;74.628;2022-12-18T12:44:24;3.10;99.90
35746;DHT22;21870;42.812;74.628;2022-12-18T12:46:54;3.10;99.90
35746;DHT22;21870;42.812;74.628;2022-12-18T12:49:24;3.10;99.90
35746;DHT22;21870;42.812;74.628;2022-12-18T12:52:07;3.00;99.90
35746;DHT22;21870;42.812;74.628;2022-12-18T12:54:36;3.10;99.90
35746;DHT22;21870;42.812;74.628;2022-12-18T12:57:15;3.00;99.90
35746;DHT22;21870;42.812;74.628;2022-12-18T13:00:00;2.90;99.90
35746;DHT22;21870;42.812;74.628;2022-12-18T13:05:26;2.80;99.90
35746;DHT22;21870;42.812;74.628;2022-12-18T13:08:07;2.80;99.90
35746;DHT22;21870;42.812;74.628;2022-12-18T13:10:39;2.80;99.90
35746;DHT22;21870;42.812;74.628;2022-12-18T13:13:11;2.90;99.90
35746;DHT22;21870;42.812;74.628;2022-12-18T13:15:46;2.90;99.90
35746;DHT22;21870;42.812;74.628;2022-12-18T13:20:50;2.80;99.90
35746;DHT22;21870;42.812;74.628;2022-12-18T13:25:56;2.60;99.90
35746;DHT22;21870;42.812;74.628;2022-12-18T13:36:43;2.40;99.90
35746;DHT22;21870;42.812;74.628;2022-12-18T13:41:46;2.20;99.90
35746;DHT22;21870;42.812;74.628;2022-12-18T13:44:35;2.20;99.90
35746;DHT22;21870;42.812;74.628;2022-12-18T13:47:32;2.20;99.90
35746;DHT22;21870;42.812;74.628;2022-12-18T13:50:00;2.30;99.90
35746;DHT22;21870;42.812;74.628;2022-12-18T13:52:37;2.30;99.90
35746;DHT22;21870;42.812;74.628;2022-12-18T13:55:11;2.40;99.90
35746;DHT22;21870;42.812;74.628;2022-12-18T13:57:40;2.30;99.90
35746;DHT22;21870;42.812;74.628;2022-12-18T14:00:24;2.20;99.90
35746;DHT22;21870;42.812;74.628;2022-12-18T14:02:51;2.10;99.90
35746;DHT22;21870;42.812;74.628;2022-12-18T14:05:24;2.20;99.90
35746;DHT22;21870;42.812;74.628;2022-12-18T14:07:52;2.20;99.90
35746;DHT22;21870;42.812;74.628;2022-12-18T14:10:19;2.20;99.90
35746;DHT22;21870;42.812;74.628;2022-12-18T14:12:50;2.20;99.90
35746;DHT22;21870;42.812;74.628;2022-12-18T14:17:55;2.20;99.90
35746;DHT22;21870;42.812;74.628;2022-12-18T14:20:24;2.20;99.90
35746;DHT22;21870;42.812;74.628;2022-12-18T14:22:51;2.20;99.90
35746;DHT22;21870;42.812;74.628;2022-12-18T14:25:37;2.10;99.90
35746;DHT22;21870;42.812;74.628;2022-12-18T14:30:36;1.80;99.90
35746;DHT22;21870;42.812;74.628;2022-12-18T14:35:54;1.50;99.90
35746;DHT22;21870;42.812;74.628;2022-12-18T14:38:28;1.50;99.90
35746;DHT22;21870;42.812;74.628;2022-12-18T14:41:04;1.60;99.90
35746;DHT22;21870;42.812;74.628;2022-12-18T14:43:36;1.70;99.90
35746;DHT22;21870;42.812;74.628;2022-12-18T14:46:04;1.70;99.90
35746;DHT22;21870;42.812;74.628;2022-12-18T14:48:41;1.50;99.90
35746;DHT22;21870;42.812;74.628;2022-12-18T14:54:05;1.50;99.90
35746;DHT22;21870;42.812;74.628;2022-12-18T14:56:37;1.40;99.90
35746;DHT22;21870;42.812;74.628;2022-12-18T15:02:34;1.30;99.90
35746;DHT22;21870;42.812;74.628;2022-12-18T15:04:37;1.30;99.90
35746;DHT22;21870;42.812;74.628;2022-12-18T15:07:13;1.20;99.90
35746;DHT22;21870;42.812;74.628;2022-12-18T15:09:42;1.10;99.90
35746;DHT22;21870;42.812;74.628;2022-12-18T15:12:36;1.10;99.90
35746;DHT22;21870;42.812;74.628;2022-12-18T15:15:43;1.10;99.90
35746;DHT22;21870;42.812;74.628;2022-12-18T15:20:56;1.00;99.90
35746;DHT22;21870;42.812;74.628;2022-12-18T15:23:34;1.00;99.90
35746;DHT22;21870;42.812;74.628;2022-12-18T15:26:07;0.80;99.90
35746;DHT22;21870;42.812;74.628;2022-12-18T15:28:44;0.80;99.90
35746;DHT22;21870;42.812;74.628;2022-12-18T15:31:30;0.70;99.90
35746;DHT22;21870;42.812;74.628;2022-12-18T15:36:37;0.70;99.90
35746;DHT22;21870;42.812;74.628;2022-12-18T15:39:09;0.80;99.90
35746;DHT22;21870;42.812;74.628;2022-12-18T15:41:38;0.80;99.90
35746;DHT22;21870;42.812;74.628;2022-12-18T15:44:25;0.90;99.90
35746;DHT22;21870;42.812;74.628;2022-12-18T15:46:52;0.90;99.90
35746;DHT22;21870;42.812;74.628;2022-12-18T15:49:20;0.90;99.90
35746;DHT22;21870;42.812;74.628;2022-12-18T15:51:54;0.90;99.90
35746;DHT22;21870;42.812;74.628;2022-12-18T15:54:23;0.90;99.90
35746;DHT22;21870;42.812;74.628;2022-12-18T15:57:13;0.70;99.90
35746;DHT22;21870;42.812;74.628;2022-12-18T15:59:50;0.80;99.90
35746;DHT22;21870;42.812;74.628;2022-12-18T16:02:18;0.80;99.90
35746;DHT22;21870;42.812;74.628;2022-12-18T16:04:44;0.60;99.90
35746;DHT22;21870;42.812;74.628;2022-12-18T16:07:12;0.70;99.90
35746;DHT22;21870;42.812;74.628;2022-12-18T16:09:38;0.70;99.90
35746;DHT22;21870;42.812;74.628;2022-12-18T16:12:06;0.60;99.90
35746;DHT22;21870;42.812;74.628;2022-12-18T16:14:33;0.70;99.90
35746;DHT22;21870;42.812;74.628;2022-12-18T16:17:02;0.60;99.90
35746;DHT22;21870;42.812;74.628;2022-12-18T16:19:29;0.70;99.90
35746;DHT22;21870;42.812;74.628;2022-12-18T16:21:57;0.60;99.90
35746;DHT22;21870;42.812;74.628;2022-12-18T16:24:26;0.50;99.90
35746;DHT22;21870;42.812;74.628;2022-12-18T16:26:53;0.50;99.90
35746;DHT22;21870;42.812;74.628;2022-12-18T16:29:20;0.40;99.90
35746;DHT22;21870;42.812;74.628;2022-12-18T16:31:50;0.40;99.90
35746;DHT22;21870;42.812;74.628;2022-12-18T16:34:28;0.40;99.90
35746;DHT22;21870;42.812;74.628;2022-12-18T16:37:00;0.40;99.90
35746;DHT22;21870;42.812;74.628;2022-12-18T16:39:26;0.30;99.90
35746;DHT22;21870;42.812;74.628;2022-12-18T16:41:53;0.40;99.90
35746;DHT22;21870;42.812;74.628;2022-12-18T16:44:19;0.40;99.90
35746;DHT22;21870;42.812;74.628;2022-12-18T16:46:46;0.30;99.90
35746;DHT22;21870;42.812;74.628;2022-12-18T16:49:16;0.30;99.90
35746;DHT22;21870;42.812;74.628;2022-12-18T16:51:45;0.30;99.90
35746;DHT22;21870;42.812;74.628;2022-12-18T16:54:11;0.30;99.90
35746;DHT22;21870;42.812;74.628;2022-12-18T16:56:37;0.20;99.90
35746;DHT22;21870;42.812;74.628;2022-12-18T16:59:04;0.20;99.90
35746;DHT22;21870;42.812;74.628;2022-12-18T17:01:31;0.30;99.90
35746;DHT22;21870;42.812;74.628;2022-12-18T17:04:01;0.30;99.90
35746;DHT22;21870;42.812;74.628;2022-12-18T17:06:31;0.20;99.90
35746;DHT22;21870;42.812;74.628;2022-12-18T17:08:59;0.10;99.90
35746;DHT22;21870;42.812;74.628;2022-12-18T17:11:28;0.00;99.90
35746;DHT22;21870;42.812;74.628;2022-12-18T17:13:54;0.00;99.90
35746;DHT22;21870;42.812;74.628;2022-12-18T17:16:21;0.00;99.90
35746;DHT22;21870;42.812;74.628;2022-12-18T17:18:47;-0.10;99.90
35746;DHT22;21870;42.812;74.628;2022-12-18T17:21:14;-0.20;99.90
35746;DHT22;21870;42.812;74.628;2022-12-18T17:23:41;-0.20;99.90
35746;DHT22;21870;42.812;74.628;2022-12-18T17:26:08;-0.10;99.90
35746;DHT22;21870;42.812;74.628;2022-12-18T17:28:36;-0.20;99.90